YV7526 SVBC-SVFM
Flight info
| Callsign | YV7526 |
|---|---|
| Flight time | N/A |
| Altitude | 24000 |
| Route | ARVEX1 ISULA G443 CBC |
| Aircraft | LJ35/M-SGHRWXY/SB1 |
Departure
| Time | 2026-04-21 20:47 |
|---|---|
| Airport | General José Antonio Anzoategui International Airport (SVBC) |
Arrival
| Time | N/A |
|---|---|
| Airport | Generalissimo Francisco de Miranda Air Base (SVFM) |
| Time | Latitude | Longitude | Altitude | Speed | Heading |
|---|---|---|---|---|---|
| 2026-04-21 20:38 | 10.10760 | -64.68676 | 28 ft | 0 kts | 348° |
| 2026-04-21 20:41 | 10.10766 | -64.68677 | 28 ft | 0 kts | 346° |
| 2026-04-21 20:42 | 10.10775 | -64.68683 | 28 ft | 4 kts | 296° |
| 2026-04-21 20:42 | 10.10767 | -64.68733 | 28 ft | 1 kts | 260° |
| 2026-04-21 20:42 | 10.10764 | -64.68755 | 28 ft | 6 kts | 264° |
| 2026-04-21 20:42 | 10.10764 | -64.68756 | 28 ft | 6 kts | 265° |
| 2026-04-21 20:43 | 10.10756 | -64.68783 | 28 ft | 15 kts | 253° |
| 2026-04-21 20:43 | 10.10726 | -64.68897 | 28 ft | 15 kts | 230° |
| 2026-04-21 20:44 | 10.10621 | -64.68942 | 29 ft | 19 kts | 191° |
| 2026-04-21 20:44 | 10.10482 | -64.68971 | 29 ft | 22 kts | 192° |
| 2026-04-21 20:44 | 10.10323 | -64.69008 | 31 ft | 25 kts | 194° |
| 2026-04-21 20:44 | 10.10165 | -64.69044 | 33 ft | 23 kts | 192° |
| 2026-04-21 20:45 | 10.09994 | -64.69081 | 33 ft | 27 kts | 192° |
| 2026-04-21 20:45 | 10.09815 | -64.69122 | 37 ft | 25 kts | 193° |
| 2026-04-21 20:45 | 10.09639 | -64.69162 | 40 ft | 27 kts | 193° |
| 2026-04-21 20:45 | 10.09448 | -64.69209 | 44 ft | 26 kts | 194° |
| 2026-04-21 20:46 | 10.09322 | -64.69263 | 45 ft | 16 kts | 210° |
| 2026-04-21 20:46 | 10.09310 | -64.69237 | 45 ft | 10 kts | 17° |
| 2026-04-21 20:46 | 10.09327 | -64.69234 | 46 ft | 0 kts | 11° |
| 2026-04-21 20:46 | 10.09427 | -64.69213 | 45 ft | 47 kts | 12° |
| 2026-04-21 20:47 | 10.10007 | -64.69081 | 33 ft | 120 kts | 12° |
| 2026-04-21 20:47 | 10.11006 | -64.68851 | 66 ft | 170 kts | 13° |
| 2026-04-21 20:47 | 10.12225 | -64.68548 | 404 ft | 189 kts | 15° |
| 2026-04-21 20:47 | 10.13433 | -64.68218 | 895 ft | 168 kts | 17° |
| 2026-04-21 20:48 | 10.14521 | -64.67913 | 1353 ft | 146 kts | 17° |
| 2026-04-21 20:48 | 10.15428 | -64.67686 | 1943 ft | 139 kts | 17° |
| 2026-04-21 20:48 | 10.16368 | -64.67444 | 2369 ft | 136 kts | 17° |
| 2026-04-21 20:48 | 10.17275 | -64.67166 | 2707 ft | 142 kts | 22° |
| 2026-04-21 20:49 | 10.18197 | -64.66735 | 3041 ft | 144 kts | 32° |
| 2026-04-21 20:49 | 10.18969 | -64.66101 | 3476 ft | 148 kts | 49° |
| 2026-04-21 20:49 | 10.19487 | -64.65194 | 4046 ft | 147 kts | 73° |
| 2026-04-21 20:49 | 10.19501 | -64.64170 | 4592 ft | 152 kts | 105° |
| 2026-04-21 20:50 | 10.18987 | -64.63210 | 5064 ft | 149 kts | 111° |
| 2026-04-21 20:50 | 10.19090 | -64.62198 | 4899 ft | 167 kts | 48° |
| 2026-04-21 20:50 | 10.20282 | -64.61808 | 4188 ft | 213 kts | 353° |
| 2026-04-21 20:50 | 10.21496 | -64.62788 | 3478 ft | 249 kts | 286° |
| 2026-04-21 20:51 | 10.21107 | -64.64475 | 2669 ft | 258 kts | 233° |
| 2026-04-21 20:51 | 10.19798 | -64.65508 | 1831 ft | 216 kts | 210° |
| 2026-04-21 20:51 | 10.18544 | -64.66244 | 1205 ft | 208 kts | 210° |
| 2026-04-21 20:51 | 10.17335 | -64.66998 | 815 ft | 196 kts | 212° |
| 2026-04-21 20:52 | 10.16155 | -64.67607 | 637 ft | 184 kts | 200° |
| 2026-04-21 20:52 | 10.14959 | -64.67985 | 434 ft | 180 kts | 191° |
| 2026-04-21 20:52 | 10.13764 | -64.68259 | 332 ft | 171 kts | 189° |
| 2026-04-21 20:52 | 10.12604 | -64.68500 | 243 ft | 170 kts | 192° |
| 2026-04-21 20:53 | 10.11478 | -64.68749 | 53 ft | 159 kts | 192° |
| 2026-04-21 20:53 | 10.10665 | -64.68932 | 29 ft | 132 kts | 192° |